createdAt,value
2023-01-29T00:00:48.529Z,0.00
2023-01-29T00:01:48.583Z,0.00
2023-01-29T00:02:48.579Z,0.00
2023-01-29T00:03:48.529Z,0.00
2023-01-29T00:04:48.484Z,0.00
2023-01-29T00:05:48.478Z,0.00
2023-01-29T00:06:48.465Z,0.00
2023-01-29T00:07:48.460Z,0.00
2023-01-29T00:08:48.459Z,0.00
2023-01-29T00:09:48.455Z,0.00
2023-01-29T00:10:48.426Z,0.00
2023-01-29T00:11:48.422Z,0.00
2023-01-29T00:12:48.408Z,0.00
2023-01-29T00:13:48.416Z,0.00
2023-01-29T00:14:48.385Z,0.00
2023-01-29T00:15:48.380Z,0.00
2023-01-29T00:16:48.405Z,0.00
2023-01-29T00:17:48.386Z,0.00
2023-01-29T00:18:48.370Z,0.00
2023-01-29T00:19:48.339Z,0.00
2023-01-29T00:20:48.335Z,0.00
2023-01-29T00:21:48.326Z,0.00
2023-01-29T00:22:48.327Z,0.00
2023-01-29T00:23:48.318Z,0.00
2023-01-29T00:24:48.287Z,0.00
2023-01-29T00:25:48.281Z,0.00
2023-01-29T00:26:48.267Z,0.00
2023-01-29T00:27:48.261Z,0.00
2023-01-29T00:28:48.262Z,0.00
2023-01-29T00:29:48.241Z,0.00
2023-01-29T00:30:48.223Z,0.00
2023-01-29T00:31:48.290Z,0.00
2023-01-29T00:32:48.210Z,0.00
2023-01-29T00:33:48.213Z,0.00
2023-01-29T00:34:48.189Z,0.00
2023-01-29T00:35:48.185Z,0.00
2023-01-29T00:36:48.167Z,0.00
2023-01-29T00:37:48.157Z,0.00
2023-01-29T00:38:48.156Z,0.00
2023-01-29T00:39:48.533Z,0.00
2023-01-29T00:40:48.127Z,0.00
2023-01-29T00:41:48.114Z,0.00
2023-01-29T00:42:48.098Z,0.00
2023-01-29T00:43:48.119Z,0.00
2023-01-29T00:44:48.083Z,0.00
2023-01-29T00:45:48.077Z,0.00
2023-01-29T00:46:48.132Z,0.00
2023-01-29T00:47:48.057Z,0.00
2023-01-29T00:48:48.053Z,0.00
2023-01-29T00:49:48.033Z,0.00
2023-01-29T00:50:48.025Z,0.00
2023-01-29T00:51:48.009Z,0.00
2023-01-29T00:52:47.999Z,0.00
2023-01-29T00:53:48.010Z,0.00
2023-01-29T00:54:47.975Z,0.00
2023-01-29T00:55:47.976Z,0.00
2023-01-29T00:56:47.949Z,0.00
2023-01-29T00:57:47.950Z,0.00
2023-01-29T00:58:47.946Z,0.00
2023-01-29T00:59:47.951Z,0.00
2023-01-29T01:00:47.934Z,0.00
2023-01-29T01:01:47.951Z,0.00
2023-01-29T01:02:47.908Z,0.00
2023-01-29T01:03:47.888Z,0.00
2023-01-29T01:04:47.887Z,0.00
2023-01-29T01:05:47.870Z,0.00
2023-01-29T01:06:47.853Z,0.00
2023-01-29T01:07:47.853Z,0.00
2023-01-29T01:08:47.836Z,0.00
2023-01-29T01:09:47.838Z,0.00
2023-01-29T01:10:47.808Z,0.00
2023-01-29T01:11:47.801Z,0.00
2023-01-29T01:12:47.787Z,0.00
2023-01-29T01:13:47.779Z,0.00
2023-01-29T01:14:47.784Z,0.00
2023-01-29T01:15:47.772Z,0.00
2023-01-29T01:16:47.747Z,0.00
2023-01-29T01:17:47.746Z,0.00
2023-01-29T01:18:47.737Z,0.00
2023-01-29T01:19:47.742Z,0.00
2023-01-29T01:20:47.709Z,0.00
2023-01-29T01:21:47.710Z,0.00
2023-01-29T01:22:47.683Z,0.00
2023-01-29T01:23:47.685Z,0.00
2023-01-29T01:24:47.679Z,0.00
2023-01-29T01:25:47.659Z,0.00
2023-01-29T01:26:47.643Z,0.00
2023-01-29T01:27:47.651Z,0.00
2023-01-29T01:28:47.622Z,0.00
2023-01-29T01:29:47.686Z,0.00
2023-01-29T01:30:47.619Z,0.00
2023-01-29T01:31:47.650Z,0.00
2023-01-29T01:32:47.584Z,0.00
2023-01-29T01:33:47.578Z,0.00
2023-01-29T01:34:47.572Z,0.00
2023-01-29T01:35:47.560Z,0.00
2023-01-29T01:36:47.547Z,0.00
2023-01-29T01:37:47.545Z,0.00
2023-01-29T01:38:47.516Z,0.00
2023-01-29T01:39:47.522Z,0.00
2023-01-29T01:40:47.501Z,0.00
2023-01-29T01:41:47.489Z,0.00
2023-01-29T01:42:47.478Z,0.00
2023-01-29T01:43:47.467Z,0.00
2023-01-29T01:44:47.475Z,0.00
2023-01-29T01:45:47.459Z,0.00
2023-01-29T01:46:47.431Z,0.00
2023-01-29T01:47:47.429Z,0.00
2023-01-29T01:48:47.412Z,0.00
2023-01-29T01:49:47.433Z,0.00
2023-01-29T01:50:47.392Z,0.00
2023-01-29T01:51:47.385Z,0.00
2023-01-29T01:52:47.372Z,0.00
2023-01-29T01:53:47.369Z,0.00
2023-01-29T01:54:47.362Z,0.00
2023-01-29T01:55:47.344Z,0.00
2023-01-29T01:56:47.334Z,0.00
2023-01-29T01:57:47.325Z,0.00
2023-01-29T01:58:47.308Z,0.00
2023-01-29T01:59:47.320Z,0.00
2023-01-29T02:00:47.297Z,0.00
2023-01-29T02:01:47.284Z,0.00
2023-01-29T02:02:47.276Z,0.00
2023-01-29T02:03:47.264Z,0.00
2023-01-29T02:04:47.272Z,0.00
2023-01-29T02:05:47.239Z,0.00
2023-01-29T02:06:47.233Z,0.00
2023-01-29T02:07:47.219Z,0.00
2023-01-29T02:08:47.233Z,0.00
2023-01-29T02:09:47.222Z,0.00
2023-01-29T02:10:47.197Z,0.00
2023-01-29T02:11:47.180Z,0.00
2023-01-29T02:13:57.267Z,0.00
2023-01-29T02:14:58.270Z,0.00
2023-01-29T02:15:58.259Z,0.00
2023-01-29T02:16:58.241Z,0.00
2023-01-29T02:17:58.231Z,0.00
2023-01-29T02:18:58.214Z,0.00
2023-01-29T02:19:58.229Z,0.00
2023-01-29T02:20:58.203Z,0.00
2023-01-29T02:21:58.185Z,0.00
2023-01-29T02:22:58.177Z,0.00
2023-01-29T02:23:58.315Z,0.00
2023-01-29T02:24:58.169Z,0.00
2023-01-29T02:25:58.146Z,0.00
2023-01-29T02:26:58.140Z,0.00
2023-01-29T02:27:58.121Z,0.00
2023-01-29T02:28:58.115Z,0.00
2023-01-29T02:29:58.116Z,0.00
2023-01-29T02:30:58.262Z,0.00
2023-01-29T02:31:58.118Z,0.00
2023-01-29T02:32:58.071Z,0.00
2023-01-29T02:33:58.054Z,0.00
2023-01-29T02:34:58.090Z,0.00
2023-01-29T02:35:58.035Z,0.00
2023-01-29T02:36:58.031Z,0.00
2023-01-29T02:37:58.020Z,0.00
2023-01-29T02:38:58.012Z,0.00
2023-01-29T02:39:58.009Z,0.00
2023-01-29T02:40:57.993Z,0.00
2023-01-29T02:41:57.974Z,0.00
2023-01-29T02:42:57.970Z,0.00
2023-01-29T02:43:57.952Z,0.00
2023-01-29T02:44:57.968Z,0.00
2023-01-29T02:45:57.958Z,0.00
2023-01-29T02:46:57.924Z,0.00
2023-01-29T02:47:57.915Z,0.00
2023-01-29T02:48:57.935Z,0.00
2023-01-29T02:49:57.902Z,0.00
2023-01-29T02:50:57.903Z,0.00
2023-01-29T02:51:57.871Z,0.00
2023-01-29T02:52:57.866Z,0.00
2023-01-29T02:53:57.848Z,0.00
2023-01-29T02:54:57.854Z,0.00
2023-01-29T02:55:57.830Z,0.00
2023-01-29T02:56:57.822Z,0.00
2023-01-29T02:57:57.803Z,0.00
2023-01-29T02:58:57.803Z,0.00
2023-01-29T02:59:57.810Z,0.00
2023-01-29T03:00:57.806Z,0.00
2023-01-29T03:01:57.792Z,0.00
2023-01-29T03:02:57.768Z,0.00
2023-01-29T03:03:57.745Z,0.00
2023-01-29T03:04:57.755Z,0.00
2023-01-29T03:05:57.723Z,0.00
2023-01-29T03:06:57.718Z,0.00
2023-01-29T03:07:57.712Z,0.00
2023-01-29T03:08:57.705Z,0.00
2023-01-29T03:09:57.698Z,0.00
2023-01-29T03:10:57.679Z,0.00
2023-01-29T03:11:57.663Z,0.00
2023-01-29T03:12:57.657Z,0.00
2023-01-29T03:13:57.639Z,0.00
2023-01-29T03:14:57.658Z,0.00
2023-01-29T03:15:57.624Z,0.00
2023-01-29T03:16:57.616Z,0.00
2023-01-29T03:17:57.603Z,0.00
2023-01-29T03:18:57.601Z,0.00
2023-01-29T03:19:57.598Z,0.00
2023-01-29T03:20:57.576Z,0.00
2023-01-29T03:21:57.558Z,0.00
2023-01-29T03:22:57.558Z,0.00
2023-01-29T03:23:57.557Z,0.00
2023-01-29T03:24:57.543Z,0.00
2023-01-29T03:25:57.533Z,0.00
2023-01-29T03:26:57.522Z,0.00
2023-01-29T03:27:57.502Z,0.00
2023-01-29T03:28:57.493Z,0.00
2023-01-29T03:29:57.503Z,0.00
2023-01-29T03:30:57.541Z,0.00
2023-01-29T03:31:57.561Z,0.00
2023-01-29T03:32:57.448Z,0.00
2023-01-29T03:33:57.433Z,0.00
2023-01-29T03:34:57.440Z,0.00
2023-01-29T03:35:57.441Z,0.00
2023-01-29T03:36:57.411Z,0.00
2023-01-29T03:37:57.398Z,0.00
2023-01-29T03:38:57.392Z,0.00
2023-01-29T03:39:57.404Z,0.00
2023-01-29T03:40:57.367Z,0.00
2023-01-29T03:41:57.362Z,0.00
2023-01-29T03:42:57.345Z,0.00
2023-01-29T03:43:57.330Z,0.00
2023-01-29T03:44:57.339Z,0.00
2023-01-29T03:45:57.367Z,0.00
2023-01-29T03:46:57.302Z,0.00
2023-01-29T03:47:57.294Z,0.00
2023-01-29T03:48:57.282Z,0.00
2023-01-29T03:49:57.291Z,0.00
2023-01-29T03:50:57.270Z,0.00
2023-01-29T03:51:57.276Z,0.00
2023-01-29T03:52:57.238Z,0.00
2023-01-29T03:53:57.227Z,0.00
2023-01-29T03:54:57.240Z,0.00
2023-01-29T03:55:57.203Z,0.00
2023-01-29T03:56:57.202Z,0.00
2023-01-29T03:57:57.181Z,0.00
2023-01-29T03:58:57.179Z,0.00
2023-01-29T03:59:57.175Z,0.00
2023-01-29T04:00:57.154Z,0.00
2023-01-29T04:01:57.138Z,0.00
2023-01-29T04:02:57.142Z,0.00
2023-01-29T04:03:57.223Z,0.00
2023-01-29T04:04:57.130Z,0.00
2023-01-29T04:05:57.096Z,0.00
2023-01-29T04:06:57.093Z,0.00
2023-01-29T04:07:57.079Z,0.00
2023-01-29T04:08:57.078Z,0.00
2023-01-29T04:09:57.074Z,0.00
2023-01-29T04:10:57.060Z,0.00
2023-01-29T04:11:57.037Z,0.00
2023-01-29T04:12:57.054Z,0.00
2023-01-29T04:13:57.016Z,0.00
2023-01-29T04:14:57.031Z,0.00
2023-01-29T04:15:56.998Z,0.00
2023-01-29T04:16:56.992Z,0.00
2023-01-29T04:17:56.982Z,0.00
2023-01-29T04:18:56.976Z,0.00
2023-01-29T04:19:56.973Z,0.00
2023-01-29T04:20:56.955Z,0.00
2023-01-29T04:21:56.940Z,0.00
2023-01-29T04:22:56.940Z,0.00
2023-01-29T04:23:56.946Z,0.00
2023-01-29T04:24:56.927Z,0.00
2023-01-29T04:25:56.904Z,0.00
2023-01-29T04:26:56.898Z,0.00
2023-01-29T04:27:56.880Z,0.00
2023-01-29T04:28:56.876Z,0.00
2023-01-29T04:29:56.863Z,0.00
2023-01-29T04:30:56.936Z,0.00
2023-01-29T04:31:56.872Z,0.00
2023-01-29T04:32:56.835Z,0.00
2023-01-29T04:33:56.823Z,0.00
2023-01-29T04:34:56.823Z,0.00
2023-01-29T04:35:56.815Z,0.00
2023-01-29T04:36:56.795Z,0.00
2023-01-29T04:37:56.784Z,0.00
2023-01-29T04:38:56.776Z,0.00
2023-01-29T04:39:56.766Z,0.00
2023-01-29T04:40:56.772Z,0.00
2023-01-29T04:41:56.743Z,0.00
2023-01-29T04:42:56.746Z,0.00
2023-01-29T04:43:56.722Z,0.00
2023-01-29T04:44:56.723Z,0.00
2023-01-29T04:45:56.717Z,0.00
2023-01-29T04:46:56.697Z,0.00
2023-01-29T04:47:56.693Z,0.00
2023-01-29T04:48:56.679Z,0.00
2023-01-29T04:49:56.662Z,0.00
2023-01-29T04:50:56.670Z,0.00
2023-01-29T04:51:56.644Z,0.00
2023-01-29T04:52:56.641Z,0.00
2023-01-29T04:53:56.626Z,0.00
2023-01-29T04:54:56.628Z,0.00
2023-01-29T04:55:56.628Z,0.00
2023-01-29T04:56:56.602Z,0.00
2023-01-29T04:57:56.584Z,0.00
2023-01-29T04:58:56.583Z,0.00
2023-01-29T04:59:56.564Z,0.00
2023-01-29T05:00:56.584Z,0.00
2023-01-29T05:01:56.577Z,0.00
2023-01-29T05:02:56.567Z,0.00
2023-01-29T05:03:56.525Z,0.00
2023-01-29T05:04:56.520Z,0.00
2023-01-29T05:05:56.519Z,0.00
2023-01-29T05:06:56.500Z,0.00
2023-01-29T05:07:56.484Z,0.00
2023-01-29T05:08:56.492Z,0.00
2023-01-29T05:09:56.463Z,0.00
2023-01-29T05:10:56.477Z,0.00
2023-01-29T05:11:56.449Z,0.00
2023-01-29T05:12:56.441Z,0.00
2023-01-29T05:13:56.426Z,0.00
2023-01-29T05:14:56.419Z,0.00
2023-01-29T05:15:56.452Z,0.00
2023-01-29T05:16:56.414Z,0.00
2023-01-29T05:17:56.389Z,0.00
2023-01-29T05:18:56.390Z,0.00
2023-01-29T05:19:56.368Z,0.00
2023-01-29T05:20:56.404Z,0.00
2023-01-29T05:21:56.347Z,0.00
2023-01-29T05:22:56.351Z,0.00
2023-01-29T05:23:56.334Z,0.00
2023-01-29T05:24:56.359Z,0.00
2023-01-29T05:25:56.325Z,0.00
2023-01-29T05:26:56.316Z,0.00
2023-01-29T05:27:56.291Z,0.00
2023-01-29T05:28:56.396Z,0.00
2023-01-29T05:29:56.271Z,0.00
2023-01-29T05:30:56.490Z,0.00
2023-01-29T05:31:56.319Z,0.00
2023-01-29T05:32:56.271Z,0.00
2023-01-29T05:33:56.228Z,0.00
2023-01-29T05:34:56.228Z,0.00
2023-01-29T05:35:56.220Z,0.00
2023-01-29T05:36:56.217Z,0.00
2023-01-29T05:37:56.189Z,0.00
2023-01-29T05:38:56.199Z,0.00
2023-01-29T05:39:56.171Z,0.00
2023-01-29T05:40:56.198Z,0.00
2023-01-29T05:41:56.152Z,0.00
2023-01-29T05:42:56.143Z,0.00
2023-01-29T05:43:56.131Z,0.00
2023-01-29T05:44:56.166Z,0.00
2023-01-29T05:45:56.160Z,0.00
2023-01-29T05:46:56.140Z,0.00
2023-01-29T05:47:56.095Z,0.00
2023-01-29T05:48:56.089Z,0.00
2023-01-29T05:49:56.073Z,0.00
2023-01-29T05:50:56.083Z,0.00
2023-01-29T05:51:56.054Z,0.00
2023-01-29T05:52:56.045Z,0.00
2023-01-29T05:53:56.033Z,0.00
2023-01-29T05:54:56.035Z,0.00
2023-01-29T05:55:56.027Z,0.00
2023-01-29T05:56:56.008Z,0.00
2023-01-29T05:57:55.990Z,0.00
2023-01-29T05:58:55.993Z,0.00
2023-01-29T05:59:55.980Z,0.00
2023-01-29T06:00:55.980Z,0.00
2023-01-29T06:01:56.042Z,0.00
2023-01-29T06:02:56.016Z,0.00
2023-01-29T06:03:55.936Z,0.00
2023-01-29T06:04:55.929Z,0.00
2023-01-29T06:05:55.924Z,0.00
2023-01-29T06:06:55.904Z,0.00
2023-01-29T06:07:55.892Z,0.00
2023-01-29T06:08:55.888Z,0.00
2023-01-29T06:09:55.869Z,0.00
2023-01-29T06:10:55.878Z,0.00
2023-01-29T06:11:55.860Z,0.00
2023-01-29T06:12:55.846Z,0.00
2023-01-29T06:13:55.831Z,0.00
2023-01-29T06:14:55.827Z,0.00
2023-01-29T06:15:55.890Z,0.00
2023-01-29T06:16:55.803Z,0.00
2023-01-29T06:17:55.789Z,0.00
2023-01-29T06:18:55.791Z,0.00
2023-01-29T06:19:55.772Z,0.00
2023-01-29T06:20:55.789Z,0.00
2023-01-29T06:21:55.759Z,0.00
2023-01-29T06:22:55.756Z,0.00
2023-01-29T06:23:55.769Z,0.00
2023-01-29T06:24:55.729Z,0.00
2023-01-29T06:25:55.822Z,0.00
2023-01-29T06:26:55.737Z,0.00
2023-01-29T06:27:57.778Z,0.00
2023-01-29T06:28:55.678Z,1.00
2023-01-29T06:29:55.672Z,0.00
2023-01-29T06:30:55.679Z,1.00
2023-01-29T06:31:55.765Z,1.00
2023-01-29T06:32:55.605Z,1.00
2023-01-29T06:33:55.579Z,1.00
2023-01-29T06:34:55.572Z,1.00
2023-01-29T06:35:55.573Z,1.00
2023-01-29T06:36:55.553Z,2.00
2023-01-29T06:37:55.553Z,2.00
2023-01-29T06:38:55.549Z,2.00
2023-01-29T06:39:55.518Z,2.00
2023-01-29T06:40:55.530Z,2.00
2023-01-29T06:41:55.499Z,3.00
2023-01-29T06:42:55.502Z,2.00
2023-01-29T06:43:55.490Z,1.00
2023-01-29T06:44:55.471Z,1.00
2023-01-29T06:45:55.528Z,1.00
2023-01-29T06:46:55.450Z,3.00
2023-01-29T06:47:55.443Z,3.00
2023-01-29T06:48:55.431Z,5.00
2023-01-29T06:49:55.439Z,6.00
2023-01-29T06:50:55.429Z,7.00
2023-01-29T06:51:55.424Z,8.00
2023-01-29T06:52:55.388Z,10.00
2023-01-29T06:53:55.388Z,10.00
2023-01-29T06:54:55.372Z,11.00
2023-01-29T06:55:55.381Z,11.00
2023-01-29T06:56:55.351Z,14.00
2023-01-29T06:57:55.349Z,19.00
2023-01-29T06:58:55.333Z,22.00
2023-01-29T06:59:55.336Z,31.00
2023-01-29T07:00:55.348Z,29.00
2023-01-29T07:01:55.360Z,37.00
2023-01-29T07:02:55.291Z,31.00
2023-01-29T07:03:55.296Z,44.00
2023-01-29T07:04:55.275Z,56.00
2023-01-29T07:05:55.276Z,73.00
2023-01-29T07:06:55.254Z,63.00
2023-01-29T07:07:55.248Z,80.00
2023-01-29T07:08:55.241Z,119.00
2023-01-29T07:09:55.228Z,121.00
2023-01-29T07:10:55.225Z,122.00
2023-01-29T07:11:55.207Z,155.00
2023-01-29T07:12:55.198Z,158.00
2023-01-29T07:13:55.220Z,144.00
2023-01-29T07:14:55.174Z,137.00
2023-01-29T07:15:55.272Z,159.00
2023-01-29T07:16:55.161Z,171.00
2023-01-29T07:17:55.149Z,179.00
2023-01-29T07:18:55.150Z,183.00
2023-01-29T07:19:55.143Z,201.00
2023-01-29T07:20:55.128Z,189.00
2023-01-29T07:21:55.109Z,191.00
2023-01-29T07:22:55.098Z,186.00
2023-01-29T07:23:55.103Z,221.00
2023-01-29T07:24:55.076Z,247.00
2023-01-29T07:25:55.072Z,258.00
2023-01-29T07:26:55.080Z,293.00
2023-01-29T07:27:55.052Z,287.00
2023-01-29T07:28:55.039Z,282.00
2023-01-29T07:29:55.035Z,239.00
2023-01-29T07:30:55.045Z,303.00
2023-01-29T07:31:55.184Z,256.00
2023-01-29T07:32:54.999Z,296.00
2023-01-29T07:33:54.994Z,366.00
2023-01-29T07:34:54.982Z,411.00
2023-01-29T07:35:54.975Z,465.00
2023-01-29T07:36:54.983Z,505.00
2023-01-29T07:37:55.037Z,513.00
2023-01-29T07:38:54.941Z,525.00
2023-01-29T07:39:54.942Z,576.00
2023-01-29T07:40:54.927Z,636.00
2023-01-29T07:41:54.932Z,646.00
2023-01-29T07:42:54.902Z,671.00
2023-01-29T07:43:54.898Z,620.00
2023-01-29T07:44:54.883Z,732.00
2023-01-29T07:45:54.899Z,757.00
2023-01-29T07:46:54.884Z,766.00
2023-01-29T07:47:54.867Z,807.00
2023-01-29T07:48:54.843Z,817.00
2023-01-29T07:49:54.838Z,817.00
2023-01-29T07:50:54.826Z,823.00
2023-01-29T07:51:54.834Z,861.00
2023-01-29T07:52:54.813Z,917.00
2023-01-29T07:53:54.800Z,942.00
2023-01-29T07:54:54.801Z,829.00
2023-01-29T07:55:54.778Z,839.00
2023-01-29T07:56:54.780Z,841.00
2023-01-29T07:57:54.762Z,807.00
2023-01-29T07:58:54.749Z,838.00
2023-01-29T07:59:54.744Z,906.00
2023-01-29T08:00:54.757Z,959.00
2023-01-29T08:01:54.752Z,979.00
2023-01-29T08:02:54.709Z,1141.00
2023-01-29T08:03:54.704Z,1225.00
2023-01-29T08:04:54.687Z,1317.00
2023-01-29T08:05:54.687Z,1384.00
2023-01-29T08:06:54.680Z,1299.00
2023-01-29T08:08:06.124Z,1443.00
2023-01-29T08:08:54.659Z,1501.00
2023-01-29T08:09:54.642Z,1653.00
2023-01-29T08:10:54.629Z,1657.00
2023-01-29T08:11:54.637Z,1521.00
2023-01-29T08:12:54.607Z,1464.00
2023-01-29T08:13:54.599Z,1496.00
2023-01-29T08:14:54.590Z,1504.00
2023-01-29T08:15:54.585Z,1527.00
2023-01-29T08:16:54.591Z,1600.00
2023-01-29T08:17:58.012Z,1766.00
2023-01-29T08:18:54.548Z,1860.00
2023-01-29T08:19:54.541Z,2014.00
2023-01-29T08:20:54.529Z,2191.00
2023-01-29T08:21:54.544Z,2325.00
2023-01-29T08:22:54.509Z,2444.00
2023-01-29T08:23:54.584Z,2622.00
2023-01-29T08:25:06.272Z,2802.00
2023-01-29T08:25:54.582Z,2885.00
2023-01-29T08:26:54.499Z,2830.00
2023-01-29T08:27:54.466Z,2931.00
2023-01-29T08:28:54.456Z,3005.00
2023-01-29T08:29:54.442Z,3110.00
2023-01-29T08:30:54.485Z,3347.00
2023-01-29T08:31:54.468Z,3445.00
2023-01-29T08:32:54.439Z,3586.00
2023-01-29T08:33:54.412Z,3661.00
2023-01-29T08:34:54.415Z,3693.00
2023-01-29T08:35:54.403Z,3637.00
2023-01-29T08:36:54.398Z,3460.00
2023-01-29T08:37:54.384Z,3327.00
2023-01-29T08:38:54.372Z,3299.00
2023-01-29T08:39:54.354Z,3327.00
2023-01-29T08:40:54.336Z,3384.00
2023-01-29T08:41:54.343Z,3347.00
2023-01-29T08:42:54.316Z,3201.00
2023-01-29T08:43:54.342Z,3094.00
2023-01-29T08:44:54.291Z,3035.00
2023-01-29T08:45:54.323Z,2868.00
2023-01-29T08:46:54.304Z,2716.00
2023-01-29T08:47:54.293Z,2611.00
2023-01-29T08:48:54.261Z,2486.00
2023-01-29T08:49:54.252Z,2377.00
2023-01-29T08:50:54.234Z,2301.00
2023-01-29T08:51:54.242Z,2267.00
2023-01-29T08:52:54.214Z,2269.00
2023-01-29T08:53:54.212Z,2299.00
2023-01-29T08:54:54.194Z,2340.00
2023-01-29T08:55:54.197Z,2353.00
2023-01-29T08:56:54.192Z,2431.00
2023-01-29T08:57:54.174Z,2510.00
2023-01-29T08:58:54.161Z,2549.00
2023-01-29T08:59:54.148Z,2561.00
2023-01-29T09:00:54.181Z,2602.00
2023-01-29T09:01:54.159Z,2675.00
2023-01-29T09:02:54.123Z,2759.00
2023-01-29T09:03:54.109Z,2804.00
2023-01-29T09:04:54.114Z,2854.00
2023-01-29T09:05:54.106Z,2979.00
2023-01-29T09:06:54.090Z,3137.00
2023-01-29T09:07:54.364Z,3268.00
2023-01-29T09:08:54.065Z,3402.00
2023-01-29T09:09:54.057Z,3550.00
2023-01-29T09:10:54.050Z,3708.00
2023-01-29T09:11:54.043Z,3833.00
2023-01-29T09:12:54.015Z,3983.00
2023-01-29T09:13:54.010Z,4153.00
2023-01-29T09:14:53.995Z,4347.00
2023-01-29T09:15:53.990Z,4483.00
2023-01-29T09:16:54.019Z,4596.00
2023-01-29T09:17:54.033Z,4909.00
2023-01-29T09:18:53.955Z,5400.00
2023-01-29T09:19:53.949Z,5693.00
2023-01-29T09:20:53.937Z,5922.00
2023-01-29T09:21:53.950Z,6062.00
2023-01-29T09:22:53.913Z,6247.00
2023-01-29T09:23:59.923Z,6457.00
2023-01-29T09:24:53.895Z,6741.00
2023-01-29T09:25:53.887Z,7066.00
2023-01-29T09:26:53.893Z,7314.00
2023-01-29T09:27:53.902Z,7516.00
2023-01-29T09:28:53.871Z,7728.00
2023-01-29T09:29:53.851Z,7866.00
2023-01-29T09:30:54.011Z,7655.00
2023-01-29T09:31:54.004Z,7697.00
2023-01-29T09:32:54.778Z,8059.00
2023-01-29T09:33:53.809Z,7833.00
2023-01-29T09:34:53.793Z,7234.00
2023-01-29T09:35:53.802Z,6691.00
2023-01-29T09:36:53.790Z,6300.00
2023-01-29T09:37:53.806Z,5945.00
2023-01-29T09:38:53.764Z,5646.00
2023-01-29T09:39:53.754Z,5369.00
2023-01-29T09:40:53.729Z,5128.00
2023-01-29T09:41:53.761Z,4889.00
2023-01-29T09:42:53.713Z,4537.00
2023-01-29T09:43:53.704Z,4460.00
2023-01-29T09:44:53.696Z,4529.00
2023-01-29T09:45:53.694Z,4225.00
2023-01-29T09:46:53.682Z,4232.00
2023-01-29T09:47:53.664Z,4643.00
2023-01-29T09:48:53.648Z,5092.00
2023-01-29T09:49:53.642Z,5303.00
2023-01-29T09:50:53.630Z,5628.00
2023-01-29T09:51:53.644Z,5529.00
2023-01-29T09:52:53.612Z,5444.00
2023-01-29T09:53:53.628Z,5071.00
2023-01-29T09:54:53.592Z,4943.00
2023-01-29T09:55:53.584Z,4864.00
2023-01-29T09:56:53.580Z,5014.00
2023-01-29T09:57:53.565Z,5632.00
2023-01-29T09:58:53.555Z,6369.00
2023-01-29T09:59:53.541Z,6511.00
2023-01-29T10:00:53.532Z,6758.00
2023-01-29T10:01:53.603Z,6507.00
2023-01-29T10:02:53.516Z,5274.00
2023-01-29T10:03:53.515Z,5474.00
2023-01-29T10:04:53.545Z,5608.00
2023-01-29T10:05:53.491Z,5993.00
2023-01-29T10:06:53.496Z,6093.00
2023-01-29T10:07:53.488Z,6258.00
2023-01-29T10:08:53.445Z,6624.00
2023-01-29T10:09:53.440Z,6260.00
2023-01-29T10:10:53.425Z,6035.00
2023-01-29T10:11:53.436Z,5991.00
2023-01-29T10:12:53.408Z,6296.00
2023-01-29T10:13:53.411Z,6565.00
2023-01-29T10:14:53.395Z,6283.00
2023-01-29T10:15:53.382Z,6174.00
2023-01-29T10:16:53.435Z,6134.00
2023-01-29T10:17:53.365Z,6207.00
2023-01-29T10:18:53.357Z,6176.00
2023-01-29T10:19:53.368Z,6341.00
2023-01-29T10:20:53.332Z,6887.00
2023-01-29T10:21:53.336Z,7196.00
2023-01-29T10:22:53.307Z,7406.00
2023-01-29T10:23:53.325Z,7594.00
2023-01-29T10:24:53.290Z,7793.00
2023-01-29T10:25:53.322Z,7784.00
2023-01-29T10:26:53.299Z,7120.00
2023-01-29T10:27:53.305Z,7067.00
2023-01-29T10:28:53.257Z,7095.00
2023-01-29T10:29:53.238Z,7382.00
2023-01-29T10:30:53.367Z,7445.00
2023-01-29T10:31:53.368Z,7219.00
2023-01-29T10:32:53.205Z,6466.00
2023-01-29T10:34:08.547Z,6535.00
2023-01-29T10:34:53.200Z,6698.00
2023-01-29T10:35:55.308Z,6757.00
2023-01-29T10:36:53.183Z,6801.00
2023-01-29T10:37:53.159Z,5944.00
2023-01-29T10:38:53.141Z,6147.00
2023-01-29T10:39:53.135Z,6938.00
2023-01-29T10:40:53.127Z,7085.00
2023-01-29T10:41:54.020Z,6566.00
2023-01-29T10:42:53.118Z,6480.00
2023-01-29T10:43:53.099Z,6852.00
2023-01-29T10:44:53.091Z,7074.00
2023-01-29T10:45:53.078Z,6906.00
2023-01-29T10:46:53.067Z,7578.00
2023-01-29T10:47:53.156Z,8013.00
2023-01-29T10:48:53.045Z,7748.00
2023-01-29T10:49:53.036Z,8004.00
2023-01-29T10:50:53.020Z,8671.00
2023-01-29T10:51:53.018Z,7577.00
2023-01-29T10:52:53.021Z,7372.00
2023-01-29T10:53:53.002Z,7379.00
2023-01-29T10:54:53.011Z,6503.00
2023-01-29T10:55:52.976Z,6395.00
2023-01-29T10:56:52.968Z,5655.00
2023-01-29T10:57:52.966Z,5476.00
2023-01-29T10:58:52.949Z,5364.00
2023-01-29T10:59:52.938Z,5424.00
2023-01-29T11:00:52.936Z,5316.00
2023-01-29T11:01:52.970Z,5113.00
2023-01-29T11:02:53.146Z,5310.00
2023-01-29T11:03:52.887Z,5628.00
2023-01-29T11:04:52.883Z,5747.00
2023-01-29T11:05:52.873Z,6326.00
2023-01-29T11:06:52.868Z,6642.00
2023-01-29T11:07:52.861Z,6452.00
2023-01-29T11:08:52.856Z,6172.00
2023-01-29T11:09:52.830Z,6512.00
2023-01-29T11:10:52.840Z,6983.00
2023-01-29T11:11:52.837Z,7425.00
2023-01-29T11:12:52.818Z,7562.00
2023-01-29T11:13:52.789Z,7182.00
2023-01-29T11:14:52.792Z,7023.00
2023-01-29T11:15:52.778Z,7397.00
2023-01-29T11:16:52.835Z,7196.00
2023-01-29T11:17:52.779Z,6555.00
2023-01-29T11:18:52.777Z,6768.00
2023-01-29T11:19:52.761Z,6856.00
2023-01-29T11:20:52.734Z,6917.00
2023-01-29T11:21:52.704Z,6861.00
2023-01-29T11:22:52.732Z,6031.00
2023-01-29T11:23:52.687Z,6036.00
2023-01-29T11:24:52.681Z,6127.00
2023-01-29T11:25:52.677Z,5524.00
2023-01-29T11:26:52.660Z,5037.00
2023-01-29T11:27:52.661Z,5250.00
2023-01-29T11:28:52.638Z,5673.00
2023-01-29T11:29:52.623Z,6126.00
2023-01-29T11:30:52.754Z,6636.00
2023-01-29T11:31:52.659Z,7063.00
2023-01-29T11:32:52.613Z,6981.00
2023-01-29T11:33:52.588Z,6311.00
2023-01-29T11:34:52.579Z,7171.00
2023-01-29T11:35:52.644Z,6631.00
2023-01-29T11:36:52.560Z,5514.00
2023-01-29T11:37:52.561Z,5339.00
2023-01-29T11:38:52.535Z,5696.00
2023-01-29T11:39:52.521Z,6060.00
2023-01-29T11:40:52.535Z,6898.00
2023-01-29T11:41:52.501Z,7538.00
2023-01-29T11:42:52.513Z,7646.00
2023-01-29T11:43:52.479Z,7766.00
2023-01-29T11:44:52.472Z,7124.00
2023-01-29T11:45:52.455Z,7038.00
2023-01-29T11:46:52.453Z,7406.00
2023-01-29T11:47:52.459Z,7407.00
2023-01-29T11:48:53.592Z,7783.00
2023-01-29T11:49:52.417Z,7769.00
2023-01-29T11:50:52.417Z,7916.00
2023-01-29T11:51:52.397Z,8205.00
2023-01-29T11:52:52.410Z,8348.00
2023-01-29T11:53:52.379Z,8111.00
2023-01-29T11:54:52.375Z,8185.00
2023-01-29T11:55:52.352Z,8029.00
2023-01-29T11:56:52.356Z,7256.00
2023-01-29T11:57:52.353Z,6541.00
2023-01-29T11:58:52.326Z,6595.00
2023-01-29T11:59:52.316Z,6466.00
2023-01-29T12:00:52.342Z,6527.00
2023-01-29T12:01:52.298Z,6110.00
2023-01-29T12:02:52.299Z,5732.00
2023-01-29T12:03:52.347Z,5486.00
2023-01-29T12:04:52.269Z,5311.00
2023-01-29T12:05:52.436Z,5795.00
2023-01-29T12:06:52.271Z,5244.00
2023-01-29T12:07:52.244Z,5208.00
2023-01-29T12:08:52.225Z,5209.00
2023-01-29T12:09:52.213Z,4699.00
2023-01-29T12:10:52.199Z,4454.00
2023-01-29T12:11:52.187Z,4347.00
2023-01-29T12:12:52.201Z,4185.00
2023-01-29T12:13:52.172Z,3850.00
2023-01-29T12:14:52.164Z,3619.00
2023-01-29T12:15:54.727Z,3437.00
2023-01-29T12:16:52.171Z,3618.00
2023-01-29T12:17:52.144Z,3710.00
2023-01-29T12:18:52.175Z,3669.00
2023-01-29T12:19:52.118Z,3785.00
2023-01-29T12:20:52.149Z,3568.00
2023-01-29T12:21:52.089Z,3880.00
2023-01-29T12:22:52.089Z,3709.00
2023-01-29T12:23:52.064Z,3676.00
2023-01-29T12:24:52.061Z,4005.00
2023-01-29T12:25:52.259Z,4161.00
2023-01-29T12:26:52.044Z,4041.00
2023-01-29T12:27:52.042Z,3998.00
2023-01-29T12:28:52.030Z,4000.00
2023-01-29T12:29:52.004Z,4114.00
2023-01-29T12:30:52.036Z,4086.00
2023-01-29T12:31:51.987Z,4144.00
2023-01-29T12:32:52.006Z,4169.00
2023-01-29T12:33:52.069Z,4317.00
2023-01-29T12:34:51.963Z,3876.00
2023-01-29T12:35:51.956Z,4062.00
2023-01-29T12:36:51.944Z,3804.00
2023-01-29T12:37:51.955Z,3967.00
2023-01-29T12:38:51.928Z,3945.00
2023-01-29T12:39:51.951Z,3959.00
2023-01-29T12:40:51.904Z,3730.00
2023-01-29T12:41:51.887Z,3995.00
2023-01-29T12:42:51.907Z,3794.00
2023-01-29T12:43:51.866Z,3811.00
2023-01-29T12:44:51.875Z,3550.00
2023-01-29T12:45:51.844Z,3867.00
2023-01-29T12:46:51.879Z,3695.00